Time;durP1;ratioP1;P1;durP2;ratioP2;P2;SDS_P1;SDS_P2;PMS_P1;PMS_P2;Temp;Humidity;BMP_temperature;BMP_pressure;BME280_temperature;BME280_humidity;BME280_pressure;Samples;Min_cycle;Max_cycle;Signal;HPM_P1;HPM_P2
2022/03/12 00:01:31;;;;;;;12.40;7.85;;;;;;;20.16;27.04;101153.72;7313239;19;131741;-51
2022/03/12 00:03:59;;;;;;;14.30;7.95;;;;;;;20.12;27.01;101153.34;7314657;19;131523;-51
2022/03/12 00:06:26;;;;;;;11.80;7.75;;;;;;;20.12;27.38;101149.75;7311669;19;131829;-50
2022/03/12 00:08:55;;;;;;;12.00;7.85;;;;;;;20.10;27.34;101154.72;7314341;19;129568;-53
2022/03/12 00:11:23;;;;;;;13.43;7.80;;;;;;;20.08;27.20;101140.22;7313812;19;129635;-52
2022/03/12 00:13:51;;;;;;;13.35;7.78;;;;;;;20.07;27.13;101144.09;7312872;19;130810;-51
2022/03/12 00:16:24;;;;;;;10.75;7.30;;;;;;;20.04;27.42;101136.28;7313977;19;129928;-51
2022/03/12 00:18:57;;;;;;;9.80;6.55;;;;;;;20.03;27.36;101135.44;7313617;19;128869;-51
2022/03/12 00:21:25;;;;;;;9.23;6.07;;;;;;;20.02;27.16;101136.50;7313643;19;130091;-52
2022/03/12 00:23:55;;;;;;;13.93;6.57;;;;;;;20.01;27.28;101156.22;7311949;19;130107;-49
2022/03/12 00:26:23;;;;;;;13.48;7.60;;;;;;;19.99;27.19;101171.19;7311417;19;128955;-49
2022/03/12 00:28:54;;;;;;;9.00;5.93;;;;;;;19.96;27.12;101166.09;7312974;19;129085;-49
2022/03/12 00:31:22;;;;;;;11.20;6.68;;;;;;;19.96;27.24;101171.66;7313257;19;129991;-49
2022/03/12 00:33:49;;;;;;;9.85;6.00;;;;;;;19.96;27.02;101170.81;7312995;19;130537;-50
2022/03/12 00:36:17;;;;;;;10.05;6.03;;;;;;;19.95;27.09;101171.91;7313357;19;128969;-49
2022/03/12 00:38:47;;;;;;;11.73;6.70;;;;;;;19.93;27.63;101165.75;7313441;19;128787;-50
2022/03/12 00:41:16;;;;;;;8.05;5.28;;;;;;;19.90;27.32;101169.03;7310747;19;129408;-51
2022/03/12 00:43:43;;;;;;;10.40;5.22;;;;;;;19.89;27.16;101165.44;7312578;19;130700;-51
2022/03/12 00:46:10;;;;;;;14.13;6.63;;;;;;;19.89;27.12;101175.66;7311783;19;130204;-47
2022/03/12 00:48:39;;;;;;;8.93;5.15;;;;;;;19.87;27.17;101184.25;7312650;19;129759;-54
2022/03/12 00:51:08;;;;;;;13.40;6.20;;;;;;;19.87;27.37;101180.66;7312759;19;130629;-49
2022/03/12 00:53:37;;;;;;;8.07;4.88;;;;;;;19.85;27.71;101186.44;7313544;19;130480;-51
2022/03/12 00:56:05;;;;;;;9.43;4.72;;;;;;;19.85;27.30;101194.78;7311403;19;128698;-50
2022/03/12 00:58:32;;;;;;;8.55;5.00;;;;;;;19.83;27.27;101194.16;7313067;19;130398;-52
2022/03/12 01:00:59;;;;;;;10.30;5.72;;;;;;;19.81;27.39;101196.38;7313169;19;129563;-51
2022/03/12 01:03:26;;;;;;;11.90;4.68;;;;;;;19.78;27.36;101196.88;7313218;19;130542;-52
2022/03/12 01:05:56;;;;;;;7.68;4.90;;;;;;;19.77;27.72;101201.56;7309997;19;130366;-50
2022/03/12 01:08:26;;;;;;;6.53;4.28;;;;;;;19.74;27.89;101204.00;7311771;19;129264;-50
2022/03/12 01:10:55;;;;;;;6.40;4.05;;;;;;;19.73;27.94;101200.38;7312097;19;130599;-51
2022/03/12 01:13:22;;;;;;;7.47;4.47;;;;;;;19.73;27.70;101191.19;7311398;19;130435;-52
2022/03/12 01:15:50;;;;;;;7.68;4.07;;;;;;;19.70;27.95;101184.22;7311500;19;129603;-53
2022/03/12 01:18:19;;;;;;;9.07;4.57;;;;;;;19.68;27.97;101192.81;7311764;19;129696;-49
2022/03/12 01:20:46;;;;;;;7.07;3.90;;;;;;;19.67;27.72;101191.13;7311534;19;130608;-52
2022/03/12 01:23:15;;;;;;;6.30;4.00;;;;;;;19.68;27.90;101203.91;7311123;19;130146;-52
2022/03/12 01:25:44;;;;;;;8.75;3.92;;;;;;;19.67;28.10;101205.00;7311041;19;130256;-50
2022/03/12 01:28:13;;;;;;;8.80;3.40;;;;;;;19.65;27.93;101209.94;7312572;19;128919;-49
2022/03/12 01:30:41;;;;;;;5.20;2.97;;;;;;;19.65;28.24;101215.50;7310614;19;129759;-50
2022/03/12 01:33:09;;;;;;;8.63;3.63;;;;;;;19.65;27.99;101214.63;7312503;19;130504;-52
2022/03/12 01:35:36;;;;;;;6.03;3.80;;;;;;;19.64;27.92;101212.94;7313136;19;129477;-49
2022/03/12 01:38:04;;;;;;;8.45;3.85;;;;;;;19.62;27.95;101213.19;7318606;19;129037;-53
2022/03/12 01:40:30;;;;;;;4.53;3.45;;;;;;;19.60;28.05;101207.03;7318079;19;130459;-47
2022/03/12 01:42:57;;;;;;;5.28;3.10;;;;;;;19.58;28.06;101203.69;7318377;19;130834;-51
2022/03/12 01:45:29;;;;;;;8.65;3.28;;;;;;;19.57;28.23;101201.97;7317833;19;128860;-46
2022/03/12 01:47:58;;;;;;;5.63;2.90;;;;;;;19.55;27.90;101198.63;7315958;19;129097;-50
2022/03/12 01:50:29;;;;;;;7.57;3.30;;;;;;;19.57;28.15;101198.38;7317560;19;130245;-48
2022/03/12 01:53:02;;;;;;;5.57;3.20;;;;;;;19.53;28.39;101206.34;7317259;19;129797;-48
2022/03/12 01:55:32;;;;;;;6.47;2.88;;;;;;;19.52;28.24;101215.78;7316458;19;129676;-48
2022/03/12 01:58:02;;;;;;;5.10;2.95;;;;;;;19.51;28.02;101219.63;7316226;19;129201;-52
2022/03/12 02:00:43;;;;;;;9.30;2.85;;;;;;;19.51;28.18;101225.19;7318321;19;129929;-52
2022/03/12 02:03:12;;;;;;;5.82;3.10;;;;;;;19.49;28.49;101221.81;7318046;19;129454;-51
2022/03/12 02:05:41;;;;;;;8.02;3.08;;;;;;;19.48;28.27;101228.44;7315393;19;129485;-48
2022/03/12 02:08:13;;;;;;;4.05;2.55;;;;;;;19.47;28.33;101230.38;7316294;19;129985;-54
2022/03/12 02:10:44;;;;;;;4.70;2.78;;;;;;;19.46;28.38;101225.06;7316133;19;129596;-52
2022/03/12 02:13:11;;;;;;;5.63;2.40;;;;;;;19.45;28.70;101228.91;7316329;19;129881;-49
2022/03/12 02:15:38;;;;;;;7.28;2.67;;;;;;;19.44;28.18;101230.88;7316132;19;128668;-50
2022/03/12 02:18:06;;;;;;;3.72;2.33;;;;;;;19.44;28.57;101230.03;7316916;19;129423;-50
2022/03/12 02:20:33;;;;;;;3.67;2.20;;;;;;;19.43;28.76;101229.19;7316793;19;130612;-48
2022/03/12 02:23:00;;;;;;;7.63;3.17;;;;;;;19.42;28.41;101223.88;7315960;19;130497;-53
2022/03/12 02:25:29;;;;;;;4.65;2.40;;;;;;;19.41;28.51;101231.34;7316231;19;129227;-54
2022/03/12 02:27:58;;;;;;;3.75;2.20;;;;;;;19.39;28.45;101227.97;7315836;19;129862;-50
2022/03/12 02:30:36;;;;;;;9.32;2.47;;;;;;;19.40;28.71;101235.22;7316105;19;131567;-53
2022/03/12 02:33:04;;;;;;;4.13;2.75;;;;;;;19.37;28.41;101231.00;7317283;19;129418;-54
2022/03/12 02:35:34;;;;;;;3.67;2.05;;;;;;;19.37;28.77;101242.09;7315974;19;129300;-51
2022/03/12 02:38:05;;;;;;;4.40;1.77;;;;;;;19.37;28.59;101235.72;7313348;19;129194;-51
2022/03/12 02:40:32;;;;;;;9.20;2.20;;;;;;;19.35;28.42;101233.16;7315753;19;129796;-54
2022/03/12 02:43:00;;;;;;;5.82;2.10;;;;;;;19.34;28.50;101237.03;7313766;19;130186;-54
2022/03/12 02:45:29;;;;;;;3.78;1.90;;;;;;;19.33;28.64;101235.34;7315026;19;129369;-51
2022/03/12 02:47:57;;;;;;;4.47;2.38;;;;;;;19.33;28.43;101245.59;7314099;19;130192;-54
2022/03/12 02:50:25;;;;;;;5.40;1.95;;;;;;;19.33;28.52;101251.97;7315974;19;129744;-54
2022/03/12 02:52:52;;;;;;;5.25;1.73;;;;;;;19.32;28.92;101255.00;7314394;19;130956;-50
2022/03/12 02:55:23;;;;;;;3.45;1.77;;;;;;;19.32;28.57;101253.06;7315440;19;129022;-54
2022/03/12 02:57:51;;;;;;;6.38;1.95;;;;;;;19.31;28.62;101256.94;7316012;19;129330;-50
2022/03/12 03:00:20;;;;;;;5.00;2.22;;;;;;;19.30;28.55;101252.50;7315018;19;130254;-46
2022/03/12 03:02:56;;;;;;;5.75;2.17;;;;;;;19.29;28.63;101261.91;7315736;19;129433;-53
2022/03/12 03:05:36;;;;;;;6.07;2.20;;;;;;;19.29;28.98;101258.25;7313517;19;129037;-49
2022/03/12 03:08:05;;;;;;;5.05;1.90;;;;;;;19.28;28.49;101262.97;7316677;19;129354;-49
2022/03/12 03:10:43;;;;;;;4.57;2.25;;;;;;;19.28;28.56;101260.22;7315844;19;130824;-49
2022/03/12 03:13:35;;;;;;;4.85;1.70;;;;;;;19.26;28.71;101262.38;7315399;19;130519;-47
2022/03/12 03:16:30;;;;;;;6.72;2.13;;;;;;;19.25;28.89;101260.69;7311673;19;129707;-54
2022/03/12 03:18:57;;;;;;;3.50;1.70;;;;;;;19.23;29.10;101265.63;7315056;19;129435;-52
2022/03/12 03:21:26;;;;;;;8.63;1.70;;;;;;;19.24;28.85;101263.72;7314921;19;130719;-51
2022/03/12 03:23:54;;;;;;;4.80;1.60;;;;;;;19.21;29.13;101260.34;7314776;19;130829;-51
2022/03/12 03:26:48;;;;;;;3.28;1.63;;;;;;;19.21;28.87;101260.34;7313748;19;128861;-50
2022/03/12 03:29:15;;;;;;;2.90;1.60;;;;;;;19.21;28.71;101265.03;7315347;19;129336;-49
2022/03/12 03:31:42;;;;;;;3.22;1.50;;;;;;;19.19;28.80;101262.47;7314350;19;129616;-51
2022/03/12 03:34:09;;;;;;;3.10;1.70;;;;;;;19.18;28.79;101259.94;7314532;19;132308;-50
2022/03/12 03:36:37;;;;;;;4.45;1.70;;;;;;;19.19;28.88;101261.63;7314791;19;128626;-52
2022/03/12 03:39:05;;;;;;;3.55;1.60;;;;;;;19.18;29.09;101271.88;7314472;19;128997;-51
2022/03/12 03:41:33;;;;;;;3.22;1.42;;;;;;;19.17;29.17;101269.34;7313857;19;130594;-50
2022/03/12 03:44:00;;;;;;;3.95;1.50;;;;;;;19.17;29.07;101274.91;7314334;19;129550;-48
2022/03/12 03:46:27;;;;;;;1.98;1.50;;;;;;;19.16;29.24;101267.66;7313410;19;128976;-49
2022/03/12 03:48:54;;;;;;;2.75;1.17;;;;;;;19.16;29.25;101284.31;7312493;19;128884;-49
2022/03/12 03:51:21;;;;;;;4.50;1.50;;;;;;;19.16;29.30;101289.84;7314543;19;130419;-49
2022/03/12 03:53:50;;;;;;;4.57;1.50;;;;;;;19.14;29.23;101287.28;7314129;19;129880;-49
2022/03/12 03:56:17;;;;;;;6.18;1.70;;;;;;;19.14;28.88;101286.47;7313619;19;129319;-47
2022/03/12 03:58:44;;;;;;;2.20;1.23;;;;;;;19.13;29.10;101279.22;7311289;19;129185;-51
2022/03/12 04:01:16;;;;;;;2.65;1.33;;;;;;;19.13;29.02;101282.00;7313778;19;129529;-52
2022/03/12 04:03:51;;;;;;;2.67;1.35;;;;;;;19.11;29.15;101271.16;7313156;19;131070;-47
2022/03/12 04:06:22;;;;;;;3.97;1.20;;;;;;;19.11;29.05;101282.25;7311005;19;128839;-50
2022/03/12 04:08:50;;;;;;;2.78;1.45;;;;;;;19.10;28.88;101283.34;7313861;19;129222;-49
2022/03/12 04:11:18;;;;;;;2.70;1.20;;;;;;;19.11;29.23;101286.94;7313630;19;129293;-49
2022/03/12 04:13:46;;;;;;;4.15;1.30;;;;;;;19.10;29.34;101290.78;7314376;19;130620;-50
2022/03/12 04:16:14;;;;;;;3.88;1.20;;;;;;;19.09;28.89;101289.97;7314964;19;128960;-50
2022/03/12 04:18:46;;;;;;;3.67;1.23;;;;;;;19.08;29.34;101294.66;7313341;19;130126;-49
2022/03/12 04:21:15;;;;;;;1.25;1.15;;;;;;;19.07;29.16;101298.53;7313681;19;129476;-50
2022/03/12 04:23:43;;;;;;;3.03;1.23;;;;;;;19.07;29.25;101298.53;7312348;19;129439;-53
2022/03/12 04:26:11;;;;;;;2.00;1.00;;;;;;;19.06;29.11;101305.16;7312578;19;129178;-52
2022/03/12 04:28:38;;;;;;;3.58;1.05;;;;;;;19.05;29.29;101306.25;7313642;19;129302;-49
2022/03/12 04:31:07;;;;;;;2.05;1.33;;;;;;;19.05;29.47;101306.25;7313597;19;129946;-49
2022/03/12 04:33:34;;;;;;;1.58;1.35;;;;;;;19.04;29.12;101299.00;7311596;19;129553;-49
2022/03/12 04:36:03;;;;;;;2.03;1.30;;;;;;;19.03;29.08;101308.41;7313262;19;128983;-50
2022/03/12 04:38:30;;;;;;;5.13;1.42;;;;;;;19.03;29.19;101308.41;7312606;19;129132;-48
2022/03/12 04:40:57;;;;;;;2.78;1.17;;;;;;;19.04;29.35;101312.00;7310691;19;130731;-47
2022/03/12 04:43:25;;;;;;;1.23;0.80;;;;;;;19.03;29.09;101313.97;7312322;19;130047;-51
2022/03/12 04:45:53;;;;;;;2.05;1.20;;;;;;;19.03;29.18;101313.97;7313155;19;129767;-49
2022/03/12 04:48:24;;;;;;;2.55;1.23;;;;;;;19.03;29.29;101319.50;7310748;19;129454;-49
2022/03/12 04:50:52;;;;;;;1.17;1.00;;;;;;;19.01;29.26;101321.66;7312422;19;129614;-50
2022/03/12 04:53:20;;;;;;;4.82;1.27;;;;;;;19.01;29.38;101320.84;7311526;19;130441;-48
2022/03/12 04:55:47;;;;;;;2.47;1.10;;;;;;;19.00;29.09;101314.44;7312676;19;130486;-49
2022/03/12 04:58:14;;;;;;;1.48;0.93;;;;;;;19.00;29.17;101314.44;7313167;19;128810;-49
2022/03/12 05:00:42;;;;;;;1.75;1.02;;;;;;;18.99;29.07;101320.22;7312547;19;129557;-52
2022/03/12 05:03:27;;;;;;;2.70;1.00;;;;;;;18.99;29.22;101317.44;7312015;19;130371;-50
2022/03/12 05:05:54;;;;;;;1.05;0.95;;;;;;;18.98;29.16;101322.13;7309832;19;128883;-48
2022/03/12 05:08:25;;;;;;;1.58;0.80;;;;;;;19.01;29.26;101327.22;7309773;19;130198;-52
2022/03/12 05:10:55;;;;;;;1.67;1.02;;;;;;;19.06;29.40;101320.94;7311499;19;129934;-47
2022/03/12 05:13:23;;;;;;;2.03;1.00;;;;;;;19.13;29.28;101326.38;7307507;19;130851;-54
2022/03/12 05:15:53;;;;;;;1.55;1.00;;;;;;;19.23;29.20;101329.41;7312203;19;129427;-51
2022/03/12 05:18:23;;;;;;;2.30;1.20;;;;;;;19.38;28.91;101332.56;7312043;19;128953;-50
2022/03/12 05:20:50;;;;;;;1.15;0.90;;;;;;;19.57;28.86;101321.31;7311487;19;130412;-50
2022/03/12 05:23:19;;;;;;;1.10;0.82;;;;;;;19.80;28.53;101327.94;7309640;19;130330;-49
2022/03/12 05:25:47;;;;;;;1.80;0.80;;;;;;;20.01;28.46;101329.22;7312280;19;128912;-54
2022/03/12 05:28:23;;;;;;;1.23;0.80;;;;;;;20.19;28.15;101319.88;7310247;19;129700;-51
2022/03/12 05:30:53;;;;;;;0.90;0.80;;;;;;;20.34;28.26;101329.59;7311005;19;130052;-52
2022/03/12 05:33:20;;;;;;;1.25;0.90;;;;;;;20.45;28.33;101334.25;7311768;19;130487;-49
2022/03/12 05:35:51;;;;;;;1.00;0.85;;;;;;;20.54;28.21;101332.78;7310865;19;128957;-49
2022/03/12 05:38:19;;;;;;;1.85;1.00;;;;;;;20.63;27.92;101335.97;7311899;19;128946;-49
2022/03/12 05:40:48;;;;;;;2.00;0.90;;;;;;;20.69;27.73;101336.91;7311574;19;130493;-50
2022/03/12 05:43:16;;;;;;;1.05;0.70;;;;;;;20.73;27.72;101329.78;7310542;19;130379;-50
2022/03/12 05:45:45;;;;;;;1.50;0.93;;;;;;;20.75;27.91;101335.94;7310820;19;129285;-47
2022/03/12 05:48:14;;;;;;;3.47;0.98;;;;;;;20.74;27.58;101342.59;7306349;19;129273;-50
2022/03/12 05:50:42;;;;;;;4.13;1.00;;;;;;;20.72;27.47;101351.19;7309935;19;129454;-47
2022/03/12 05:53:09;;;;;;;5.15;1.08;;;;;;;20.68;27.90;101349.97;7309856;19;130087;-49
2022/03/12 05:55:41;;;;;;;5.60;1.10;;;;;;;20.63;27.68;101351.84;7308318;19;128790;-52
2022/03/12 05:58:11;;;;;;;2.85;1.10;;;;;;;20.56;28.18;101351.97;7311281;19;130287;-49
2022/03/12 06:00:41;;;;;;;4.22;1.10;;;;;;;20.51;28.14;101351.88;7308885;19;130491;-50
2022/03/12 06:03:10;;;;;;;6.72;1.52;;;;;;;20.48;28.45;101358.78;7309839;19;129874;-54
2022/03/12 06:05:40;;;;;;;2.80;0.95;;;;;;;20.45;28.23;101356.50;7308368;19;129545;-50
2022/03/12 06:08:13;;;;;;;4.35;1.05;;;;;;;20.41;28.48;101356.16;7307918;19;128994;-49
2022/03/12 06:10:44;;;;;;;7.18;1.30;;;;;;;20.39;28.62;101360.28;7310470;19;129633;-45
2022/03/12 06:13:13;;;;;;;10.93;1.35;;;;;;;20.37;28.85;101366.06;7309777;19;130464;-46
2022/03/12 06:15:41;;;;;;;6.43;1.55;;;;;;;20.35;28.50;101370.19;7308433;19;129363;-50
2022/03/12 06:18:11;;;;;;;3.53;0.95;;;;;;;20.32;28.62;101371.53;7310499;19;129086;-51
2022/03/12 06:20:38;;;;;;;7.25;1.30;;;;;;;20.31;28.72;101380.13;7310553;19;130029;-49
2022/03/12 06:23:05;;;;;;;2.88;1.17;;;;;;;20.31;29.05;101382.91;7316578;19;129488;-46
2022/03/12 06:25:32;;;;;;;4.30;1.30;;;;;;;20.29;29.07;101380.34;7315005;19;128950;-44
2022/03/12 06:27:59;;;;;;;4.78;1.40;;;;;;;20.28;28.83;101387.88;7312795;19;130772;-48
2022/03/12 06:30:27;;;;;;;4.20;1.23;;;;;;;20.27;29.14;101388.09;7314271;19;129968;-46
2022/03/12 06:32:55;;;;;;;3.03;1.00;;;;;;;20.27;29.23;101385.31;7315797;19;129444;-48
2022/03/12 06:35:25;;;;;;;4.10;1.00;;;;;;;20.27;29.35;101383.41;7314008;19;129163;-48
2022/03/12 06:37:52;;;;;;;6.00;1.45;;;;;;;20.32;29.51;101390.13;7314497;19;129953;-48
2022/03/12 06:40:20;;;;;;;3.25;1.02;;;;;;;20.36;29.59;101397.75;7315487;19;130795;-46
2022/03/12 06:42:51;;;;;;;6.95;1.35;;;;;;;20.44;29.40;101399.25;7315021;19;129863;-46
2022/03/12 06:45:18;;;;;;;9.77;1.50;;;;;;;20.51;29.23;101405.53;7315104;19;129099;-51
2022/03/12 06:47:46;;;;;;;6.90;1.83;;;;;;;20.58;29.17;101406.22;7315828;19;128870;-45
2022/03/12 06:50:18;;;;;;;6.63;1.40;;;;;;;20.67;28.69;101411.41;7314931;19;130026;-45
2022/03/12 06:52:48;;;;;;;3.97;1.30;;;;;;;20.72;28.71;101412.34;7316249;19;129894;-49
2022/03/12 06:55:17;;;;;;;5.63;1.10;;;;;;;20.78;28.74;101410.53;7316362;19;129847;-50
2022/03/12 06:57:46;;;;;;;6.20;1.48;;;;;;;20.84;28.85;101419.81;7316797;19;129266;-52
2022/03/12 07:00:16;;;;;;;2.42;1.00;;;;;;;20.88;28.54;101421.84;7315771;19;131749;-49
2022/03/12 07:02:44;;;;;;;5.72;1.45;;;;;;;20.93;28.64;101425.78;7316051;19;129577;-52
2022/03/12 07:05:11;;;;;;;4.45;1.20;;;;;;;20.96;28.17;101425.31;7314826;19;129051;-49
2022/03/12 07:07:38;;;;;;;3.85;1.30;;;;;;;20.96;28.25;101440.06;7315331;19;129431;-49
2022/03/12 07:10:07;;;;;;;2.90;1.20;;;;;;;20.97;28.21;101424.22;7312933;19;129621;-52
2022/03/12 07:12:34;;;;;;;2.78;1.38;;;;;;;20.96;28.59;101426.16;7312743;19;130407;-58
2022/03/12 07:15:01;;;;;;;4.88;1.20;;;;;;;20.96;28.58;101428.94;7314502;19;128979;-60
2022/03/12 07:17:28;;;;;;;3.70;1.15;;;;;;;20.95;28.52;101429.19;7315222;19;129614;-54
2022/03/12 07:19:55;;;;;;;7.45;1.38;;;;;;;20.93;28.57;101432.22;7314409;19;130580;-55
2022/03/12 07:22:22;;;;;;;2.25;1.20;;;;;;;20.92;28.18;101443.59;7314905;19;129872;-46
2022/03/12 07:24:49;;;;;;;3.28;1.20;;;;;;;20.89;28.62;101443.00;7313941;19;129451;-52
2022/03/12 07:27:16;;;;;;;2.33;1.10;;;;;;;20.86;28.31;101446.28;7315587;19;130212;-50
2022/03/12 07:29:42;;;;;;;2.50;1.40;;;;;;;20.84;28.29;101442.91;7314754;19;131611;-48
2022/03/12 07:32:11;;;;;;;4.20;1.40;;;;;;;20.83;28.30;101452.31;7315596;19;131346;-57
2022/03/12 07:34:38;;;;;;;7.07;1.38;;;;;;;20.80;28.67;101443.66;7314042;19;128971;-54
2022/03/12 07:37:07;;;;;;;3.08;1.27;;;;;;;20.80;28.50;101455.59;7314637;19;129468;-53
2022/03/12 07:39:34;;;;;;;4.82;1.35;;;;;;;20.79;28.51;101455.88;7315117;19;131852;-52
2022/03/12 07:42:03;;;;;;;1.80;1.05;;;;;;;20.78;28.51;101460.59;7312894;19;129720;-49
2022/03/12 07:44:30;;;;;;;2.28;1.30;;;;;;;20.79;28.53;101461.41;7312331;19;130890;-53
2022/03/12 07:46:57;;;;;;;3.67;1.42;;;;;;;20.79;28.57;101466.97;7312895;19;129051;-53
2022/03/12 07:49:25;;;;;;;3.45;1.40;;;;;;;20.77;28.46;101475.59;7310166;19;129611;-54
2022/03/12 07:51:53;;;;;;;4.25;1.67;;;;;;;20.75;28.26;101478.59;7312992;19;130186;-58
2022/03/12 07:54:20;;;;;;;3.38;1.60;;;;;;;20.71;28.42;101487.66;7314764;19;129339;-52
2022/03/12 07:56:46;;;;;;;3.10;1.40;;;;;;;20.68;28.89;101494.56;7314623;19;129018;-51
2022/03/12 07:59:13;;;;;;;3.80;1.50;;;;;;;20.66;28.73;101490.34;7314217;19;130684;-55
2022/03/12 08:01:40;;;;;;;5.05;1.30;;;;;;;20.66;28.69;101490.34;7314098;19;130311;-56
2022/03/12 08:04:07;;;;;;;3.17;1.40;;;;;;;20.64;28.70;101496.13;7312985;19;129110;-50
2022/03/12 08:06:34;;;;;;;3.05;1.58;;;;;;;20.67;28.25;101497.59;7310550;19;128964;-49
2022/03/12 08:09:01;;;;;;;3.50;1.30;;;;;;;20.67;28.41;101503.97;7311710;19;129553;-54
2022/03/12 08:11:28;;;;;;;2.70;1.23;;;;;;;20.66;28.33;101512.59;7311032;19;130609;-52
2022/03/12 08:14:02;;;;;;;2.95;1.20;;;;;;;20.66;28.32;101518.16;7313977;19;128901;-54
2022/03/12 08:16:30;;;;;;;6.38;1.63;;;;;;;20.67;28.41;101525.41;7313576;19;128947;-53
2022/03/12 08:18:57;;;;;;;2.75;1.27;;;;;;;20.67;28.61;101533.75;7314852;19;130577;-53
2022/03/12 08:21:24;;;;;;;3.75;1.33;;;;;;;20.66;28.43;101538.44;7313998;19;130365;-53
2022/03/12 08:23:52;;;;;;;3.38;1.25;;;;;;;20.64;28.37;101537.00;7314461;19;128811;-52
2022/03/12 08:26:19;;;;;;;2.60;1.42;;;;;;;20.62;28.30;101542.78;7312526;19;129471;-51
2022/03/12 08:28:46;;;;;;;3.70;1.40;;;;;;;20.58;28.55;101545.22;7312384;19;131526;-53
2022/03/12 08:31:13;;;;;;;6.50;1.45;;;;;;;20.56;28.40;101541.00;7312166;19;129448;-53
2022/03/12 08:33:41;;;;;;;2.13;1.42;;;;;;;20.53;28.60;101542.34;7312614;19;130919;-55
2022/03/12 08:36:08;;;;;;;2.53;1.20;;;;;;;20.49;28.70;101546.69;7312321;19;129912;-51
2022/03/12 08:38:36;;;;;;;3.78;1.60;;;;;;;20.48;28.85;101560.84;7312746;19;130265;-53
2022/03/12 08:41:05;;;;;;;3.97;1.70;;;;;;;20.44;28.59;101560.47;7312456;19;129952;-54
2022/03/12 08:43:33;;;;;;;5.32;1.52;;;;;;;20.42;28.60;101562.66;7312965;19;128921;-55
2022/03/12 08:46:02;;;;;;;5.75;1.45;;;;;;;20.38;28.89;101569.78;7311398;19;128993;-53
2022/03/12 08:48:29;;;;;;;3.33;1.40;;;;;;;20.36;28.97;101572.81;7312110;19;130624;-51
2022/03/12 08:50:56;;;;;;;2.65;1.27;;;;;;;20.36;29.08;101571.97;7312659;19;129472;-54
2022/03/12 08:53:27;;;;;;;3.78;1.63;;;;;;;20.35;29.03;101567.47;7312644;19;130660;-50
2022/03/12 08:55:54;;;;;;;6.20;1.40;;;;;;;20.35;28.92;101567.47;7311631;19;129304;-49
2022/03/12 08:58:23;;;;;;;5.68;1.83;;;;;;;20.36;28.66;101567.25;7312339;19;130226;-49
2022/03/12 09:00:52;;;;;;;6.88;1.30;;;;;;;20.35;29.11;101562.78;7313008;19;129565;-51
2022/03/12 09:03:20;;;;;;;4.78;1.30;;;;;;;20.38;28.93;101561.44;7312715;19;128892;-53
2022/03/12 09:05:48;;;;;;;4.55;1.40;;;;;;;20.37;28.92;101563.38;7309423;19;129023;-50
2022/03/12 09:08:16;;;;;;;3.95;1.33;;;;;;;20.37;29.17;101565.31;7310505;19;130576;-50
2022/03/12 09:10:44;;;;;;;6.68;1.45;;;;;;;20.36;28.90;101560.84;7311531;19;129896;-53
2022/03/12 09:13:15;;;;;;;2.80;1.30;;;;;;;20.35;28.90;101561.94;7310193;19;128990;-54
2022/03/12 09:15:42;;;;;;;7.65;1.48;;;;;;;20.34;28.98;101563.88;7311146;19;129461;-52
2022/03/12 09:18:10;;;;;;;6.97;1.48;;;;;;;20.33;28.71;101561.31;7311213;19;130462;-50
2022/03/12 09:20:46;;;;;;;4.40;1.33;;;;;;;20.32;28.93;101559.63;7311098;19;129516;-52
2022/03/12 09:23:22;;;;;;;4.30;1.58;;;;;;;20.31;28.66;101560.75;7311655;19;129043;-53
2022/03/12 09:25:50;;;;;;;11.05;1.40;;;;;;;20.31;28.91;101560.75;7311703;19;129605;-48
2022/03/12 09:28:19;;;;;;;2.85;1.20;;;;;;;20.32;28.90;101570.75;7308977;19;132975;-50
2022/03/12 09:30:51;;;;;;;4.30;1.27;;;;;;;20.31;28.96;101566.28;7311828;19;129685;-50
2022/03/12 09:33:21;;;;;;;6.80;1.38;;;;;;;20.31;28.65;101580.19;7312138;19;129179;-52
2022/03/12 09:35:49;;;;;;;2.65;1.40;;;;;;;20.30;29.18;101576.53;7311318;19;129938;-49
2022/03/12 09:38:17;;;;;;;5.43;1.40;;;;;;;20.32;28.96;101574.38;7310946;19;130482;-54
2022/03/12 09:40:45;;;;;;;3.80;1.50;;;;;;;20.33;28.89;101581.63;7311617;19;129511;-50
2022/03/12 09:43:12;;;;;;;2.92;1.25;;;;;;;20.33;28.89;101586.31;7311614;19;129399;-52
2022/03/12 09:45:39;;;;;;;7.35;1.90;;;;;;;20.34;28.91;101576.91;7308449;19;128880;-52
2022/03/12 09:48:07;;;;;;;5.10;1.40;;;;;;;20.33;28.77;101578.00;7311046;19;130482;-51
2022/03/12 09:50:34;;;;;;;3.70;1.30;;;;;;;20.33;29.03;101575.22;7311120;19;131527;-54
2022/03/12 09:53:02;;;;;;;3.80;1.48;;;;;;;20.33;29.14;101575.22;7310082;19;129155;-52
2022/03/12 09:55:29;;;;;;;5.32;1.48;;;;;;;20.34;29.13;101577.75;7310096;19;129741;-52
2022/03/12 09:57:56;;;;;;;4.78;0.95;;;;;;;20.33;28.92;101566.88;7316349;19;130744;-50
2022/03/12 10:00:25;;;;;;;5.05;1.35;;;;;;;20.33;29.19;101564.09;7314399;19;129511;-51
2022/03/12 10:02:52;;;;;;;5.10;1.27;;;;;;;20.32;29.00;101562.41;7317214;19;129187;-50
2022/03/12 10:05:19;;;;;;;3.95;1.48;;;;;;;20.29;28.96;101561.81;7315266;19;128993;-49
2022/03/12 10:07:46;;;;;;;10.80;1.20;;;;;;;20.29;28.93;101556.28;7316678;19;130207;-53
2022/03/12 10:10:22;;;;;;;4.03;1.10;;;;;;;20.28;28.86;101568.47;7312618;19;129897;-54
2022/03/12 10:12:50;;;;;;;5.28;1.40;;;;;;;20.27;29.12;101560.34;7315067;19;128901;-51
2022/03/12 10:15:19;;;;;;;2.42;1.30;;;;;;;20.26;29.10;101565.06;7316558;19;129252;-51
2022/03/12 10:17:47;;;;;;;4.30;1.45;;;;;;;20.26;29.25;101564.22;7316116;19;129877;-52
2022/03/12 10:20:15;;;;;;;8.05;1.80;;;;;;;20.24;29.30;101569.19;7313614;19;129515;-50
2022/03/12 10:22:43;;;;;;;8.27;1.60;;;;;;;20.24;28.93;101561.69;7315583;19;128827;-51
2022/03/12 10:25:12;;;;;;;8.93;1.50;;;;;;;20.21;29.20;101553.84;7314517;19;129496;-49
2022/03/12 10:27:39;;;;;;;7.82;1.35;;;;;;;20.20;29.29;101549.34;7316269;19;131150;-49
2022/03/12 10:30:07;;;;;;;3.65;1.17;;;;;;;20.20;29.16;101548.53;7314149;19;129620;-50
2022/03/12 10:32:44;;;;;;;5.05;1.15;;;;;;;20.19;28.85;101546.84;7316686;19;129018;-51
2022/03/12 10:35:12;;;;;;;;;;;;;;;20.14;28.86;101540.06;7316106;19;129538;-52
2022/03/12 10:37:40;;;;;;;3.78;1.55;;;;;;;20.16;29.08;101539.84;7312292;19;129883;-53
2022/03/12 10:40:09;;;;;;;5.47;1.95;;;;;;;20.15;29.26;101546.47;7315626;19;130718;-53
2022/03/12 10:42:57;;;;;;;5.05;1.20;;;;;;;20.12;28.99;101541.41;7313791;19;128913;-51
2022/03/12 10:45:30;;;;;;;8.82;1.45;;;;;;;20.11;29.27;101535.00;7315641;19;129139;-54
2022/03/12 10:48:02;;;;;;;8.90;1.27;;;;;;;20.10;28.87;101544.44;7316257;19;129334;-54
2022/03/12 10:50:38;;;;;;;5.93;1.50;;;;;;;20.10;29.19;101543.56;7313607;19;129552;-52
2022/03/12 10:53:07;;;;;;;3.80;1.40;;;;;;;20.09;29.18;101548.28;7315118;19;130049;-53
2022/03/12 10:55:37;;;;;;;3.45;1.20;;;;;;;20.11;28.90;101550.81;7315897;19;128879;-53
2022/03/12 10:58:12;;;;;;;5.97;1.35;;;;;;;20.10;29.04;101546.34;7314544;19;129577;-53
2022/03/12 11:00:50;;;;;;;4.22;1.38;;;;;;;20.09;28.92;101551.06;7314993;19;129552;-52
2022/03/12 11:03:29;;;;;;;5.75;1.20;;;;;;;20.08;29.06;101557.72;7315320;19;129391;-51
2022/03/12 11:05:57;;;;;;;2.35;1.17;;;;;;;20.06;29.07;101553.50;7313293;19;128992;-48
2022/03/12 11:08:29;;;;;;;3.05;1.42;;;;;;;20.06;29.22;101559.03;7314442;19;131792;-49
2022/03/12 11:11:00;;;;;;;6.53;1.20;;;;;;;20.05;29.40;101555.41;7312375;19;130467;-51
2022/03/12 11:13:52;;;;;;;4.63;1.40;;;;;;;20.06;29.17;101556.28;7312658;19;128853;-51
2022/03/12 11:16:24;;;;;;;5.10;1.10;;;;;;;20.04;29.20;101558.44;7314797;19;129066;-50
2022/03/12 11:18:51;;;;;;;5.25;1.30;;;;;;;20.03;29.17;101554.78;7314628;19;130680;-53
2022/03/12 11:21:29;;;;;;;4.22;1.35;;;;;;;20.05;29.17;101558.19;7313533;19;129247;-53
2022/03/12 11:23:58;;;;;;;3.88;1.00;;;;;;;20.03;29.42;101546.47;7315429;19;130088;-49
2022/03/12 11:26:28;;;;;;;3.65;1.50;;;;;;;20.05;29.17;101543.47;7313480;19;129496;-49